createdAt,value
2023-03-08T00:03:56.996Z,0.57
2023-03-08T00:09:01.109Z,0.58
2023-03-08T00:14:05.270Z,0.58
2023-03-08T00:19:09.525Z,0.59
2023-03-08T00:24:13.613Z,0.59
2023-03-08T00:29:17.870Z,0.60
2023-03-08T00:34:22.001Z,0.60
2023-03-08T00:39:26.149Z,0.59
2023-03-08T00:44:30.284Z,0.61
2023-03-08T00:49:34.444Z,0.60
2023-03-08T00:54:38.653Z,0.58
2023-03-08T00:59:42.779Z,0.56
2023-03-08T01:04:46.950Z,0.56
2023-03-08T01:09:51.113Z,0.53
2023-03-08T01:14:55.288Z,0.54
2023-03-08T01:19:59.428Z,0.55
2023-03-08T01:25:03.625Z,0.55
2023-03-08T01:30:07.797Z,0.55
2023-03-08T01:35:11.946Z,0.53
2023-03-08T01:40:14.205Z,0.54
2023-03-08T01:45:18.360Z,0.50
2023-03-08T01:50:22.532Z,0.54
2023-03-08T01:55:26.710Z,0.52
2023-03-08T02:00:30.886Z,0.50
2023-03-08T02:05:35.020Z,0.48
2023-03-08T02:10:39.222Z,0.47
2023-03-08T02:15:43.372Z,0.46
2023-03-08T02:20:47.522Z,0.45
2023-03-08T02:25:51.685Z,0.43
2023-03-08T02:30:55.939Z,0.43
2023-03-08T02:36:00.108Z,0.45
2023-03-08T02:41:04.226Z,0.46
2023-03-08T02:46:06.494Z,0.46
2023-03-08T02:51:10.652Z,0.47
2023-03-08T02:56:14.797Z,0.47
2023-03-08T03:01:18.976Z,0.49
2023-03-08T03:06:23.180Z,0.48
2023-03-08T03:11:27.347Z,0.49
2023-03-08T03:16:31.441Z,0.48
2023-03-08T03:21:35.617Z,0.48
2023-03-08T03:26:37.891Z,0.49
2023-03-08T03:31:42.050Z,0.49
2023-03-08T03:36:44.317Z,0.49
2023-03-08T03:41:48.502Z,0.49
2023-03-08T03:46:50.771Z,0.49
2023-03-08T03:51:54.958Z,0.50
2023-03-08T03:56:59.129Z,0.47
2023-03-08T04:02:03.290Z,0.46
2023-03-08T04:07:07.461Z,0.43
2023-03-08T04:12:11.623Z,0.41
2023-03-08T04:17:15.821Z,0.39
2023-03-08T04:22:19.967Z,0.38
2023-03-08T04:27:24.124Z,0.35
2023-03-08T04:32:28.293Z,0.32
2023-03-08T04:37:32.412Z,0.33
2023-03-08T04:42:36.611Z,0.31
2023-03-08T04:47:40.897Z,0.30
2023-03-08T04:52:44.938Z,0.30
2023-03-08T04:57:49.081Z,0.30
2023-03-08T05:02:53.257Z,0.28
2023-03-08T05:07:59.448Z,0.29
2023-03-08T05:13:03.711Z,0.31
2023-03-08T05:18:05.780Z,0.31
2023-03-08T05:23:09.909Z,0.29
2023-03-08T05:28:14.068Z,0.28
2023-03-08T05:33:16.367Z,0.25
2023-03-08T05:38:20.550Z,0.25
2023-03-08T05:43:24.704Z,0.25
2023-03-08T05:48:27.019Z,0.25
2023-03-08T05:53:31.116Z,0.18
2023-03-08T05:58:35.301Z,0.13
2023-03-08T06:03:39.506Z,0.04
2023-03-08T06:08:43.613Z,-0.02
2023-03-08T06:13:47.782Z,-0.06
2023-03-08T06:18:51.970Z,-0.07
2023-03-08T06:23:56.148Z,-0.13
2023-03-08T06:29:00.299Z,-0.13
2023-03-08T06:34:04.491Z,-0.14
2023-03-08T06:39:08.651Z,-0.17
2023-03-08T06:44:12.828Z,-0.17
2023-03-08T06:49:16.991Z,-0.21
2023-03-08T06:54:21.112Z,-0.25
2023-03-08T06:59:25.304Z,-0.26
2023-03-08T07:04:29.524Z,-0.23
2023-03-08T07:09:33.631Z,-0.22
2023-03-08T07:14:37.787Z,-0.19
2023-03-08T07:19:41.982Z,-0.23
2023-03-08T07:24:46.686Z,-0.22
2023-03-08T07:29:50.289Z,-0.28
2023-03-08T07:45:00.894Z,-0.28
2023-03-08T07:50:03.190Z,-0.32
2023-03-08T07:55:07.343Z,-0.28
2023-03-08T08:00:09.602Z,-0.33
2023-03-08T08:05:13.868Z,-0.31
2023-03-08T08:10:17.960Z,-0.29
2023-03-08T08:15:22.106Z,-0.27
2023-03-08T08:20:26.294Z,-0.18
2023-03-08T08:25:30.427Z,-0.20
2023-03-08T08:30:34.594Z,-0.20
2023-03-08T08:35:43.465Z,-0.15
2023-03-08T08:40:42.917Z,-0.13
2023-03-08T08:45:47.115Z,-0.12
2023-03-08T08:50:51.265Z,-0.11
2023-03-08T08:55:55.413Z,-0.11
2023-03-08T09:00:59.609Z,-0.03
2023-03-08T09:06:03.772Z,-0.01
2023-03-08T09:11:07.932Z,-0.01
2023-03-08T09:16:12.171Z,-0.02
2023-03-08T09:21:16.238Z,-0.03
2023-03-08T09:26:20.430Z,0.01
2023-03-08T09:31:24.614Z,-0.00
2023-03-08T09:36:28.791Z,0.09
2023-03-08T09:41:32.936Z,0.10
2023-03-08T09:46:35.252Z,0.19
2023-03-08T09:51:39.518Z,0.32
2023-03-08T09:56:41.652Z,0.24
2023-03-08T10:01:45.826Z,0.28
2023-03-08T10:06:49.958Z,0.38
2023-03-08T10:11:54.152Z,0.36
2023-03-08T10:16:58.342Z,0.46
2023-03-08T10:22:02.494Z,0.49
2023-03-08T10:27:06.611Z,0.27
2023-03-08T10:32:10.855Z,0.33
2023-03-08T10:37:14.993Z,0.36
2023-03-08T10:42:19.167Z,0.54
2023-03-08T10:47:23.401Z,0.75
2023-03-08T10:52:27.471Z,0.90
2023-03-08T10:57:31.609Z,0.83
2023-03-08T11:02:35.810Z,1.00
2023-03-08T11:07:39.958Z,0.95
2023-03-08T11:12:44.146Z,0.85
2023-03-08T11:17:48.288Z,0.83
2023-03-08T11:22:52.453Z,0.75
2023-03-08T11:27:56.656Z,0.88
2023-03-08T11:33:00.979Z,0.73
2023-03-08T11:38:04.945Z,0.68
2023-03-08T11:43:07.233Z,0.87
2023-03-08T11:48:12.534Z,0.95
2023-03-08T11:53:13.636Z,0.93
2023-03-08T11:58:17.828Z,0.94
2023-03-08T12:03:22.062Z,0.83
2023-03-08T12:08:26.276Z,0.81
2023-03-08T12:13:30.352Z,1.01
2023-03-08T12:18:34.491Z,0.92
2023-03-08T12:23:38.655Z,0.98
2023-03-08T12:28:42.909Z,0.91
2023-03-08T12:33:47.007Z,0.89
2023-03-08T12:38:51.131Z,0.83
2023-03-08T12:43:55.322Z,0.88
2023-03-08T12:54:03.666Z,0.95
2023-03-08T12:59:07.817Z,0.92
2023-03-08T13:04:11.996Z,0.97
2023-03-08T13:09:16.130Z,0.88
2023-03-08T13:14:20.308Z,0.89
2023-03-08T13:19:24.543Z,0.94
2023-03-08T13:24:28.638Z,1.05
2023-03-08T13:29:32.819Z,1.03
2023-03-08T13:34:36.956Z,0.99
2023-03-08T13:39:41.161Z,0.98
2023-03-08T13:44:43.386Z,0.95
2023-03-08T13:49:48.106Z,0.96
2023-03-08T13:54:49.846Z,1.06
2023-03-08T13:59:54.244Z,1.08
2023-03-08T14:04:58.306Z,0.96
2023-03-08T14:10:02.368Z,1.09
2023-03-08T14:15:06.567Z,1.10
2023-03-08T14:20:10.710Z,0.99
2023-03-08T14:25:14.945Z,0.98
2023-03-08T14:30:19.060Z,0.96
2023-03-08T14:35:23.148Z,0.96
2023-03-08T14:40:27.358Z,0.99
2023-03-08T14:45:31.480Z,1.01
2023-03-08T14:50:35.654Z,1.07
2023-03-08T14:55:39.877Z,1.05
2023-03-08T15:00:43.991Z,1.05
2023-03-08T15:05:48.206Z,1.04
2023-03-08T15:10:52.327Z,1.01
2023-03-08T15:15:56.492Z,0.99
2023-03-08T15:21:00.664Z,1.00
2023-03-08T15:26:04.796Z,1.02
2023-03-08T15:31:09.004Z,1.01
2023-03-08T15:36:13.125Z,1.00
2023-03-08T15:41:15.437Z,1.02
2023-03-08T15:46:19.600Z,1.03
2023-03-08T15:51:21.846Z,0.98
2023-03-08T15:56:26.023Z,0.99
2023-03-08T16:01:30.179Z,0.96
2023-03-08T16:06:34.398Z,0.93
2023-03-08T16:11:38.578Z,0.89
2023-03-08T16:16:45.556Z,0.90
2023-03-08T16:21:46.845Z,0.89
2023-03-08T16:26:51.009Z,0.90
2023-03-08T16:31:55.215Z,0.89
2023-03-08T16:36:59.336Z,0.88
2023-03-08T16:42:03.513Z,0.88
2023-03-08T16:47:07.684Z,0.87
2023-03-08T16:52:11.858Z,0.85
2023-03-08T16:57:19.371Z,0.83
2023-03-08T17:02:20.230Z,0.82
2023-03-08T17:07:24.363Z,0.79
2023-03-08T17:12:28.519Z,0.79
2023-03-08T17:17:32.682Z,0.76
2023-03-08T17:22:36.871Z,0.74
2023-03-08T17:27:40.995Z,0.73
2023-03-08T17:32:45.221Z,0.72
2023-03-08T17:37:47.437Z,0.71
2023-03-08T17:42:51.617Z,0.69
2023-03-08T17:47:53.897Z,0.71
2023-03-08T17:52:58.028Z,0.69
2023-03-08T17:58:02.207Z,0.68
2023-03-08T18:03:06.378Z,0.66
2023-03-08T18:08:10.559Z,0.63
2023-03-08T18:13:14.689Z,0.60
2023-03-08T18:18:18.908Z,0.57
2023-03-08T18:23:23.065Z,0.57
2023-03-08T18:28:27.220Z,0.56
2023-03-08T18:33:31.364Z,0.57
2023-03-08T18:38:35.544Z,0.58
2023-03-08T18:43:40.909Z,0.59
2023-03-08T18:48:43.857Z,0.57
2023-03-08T18:53:47.998Z,0.57
2023-03-08T18:58:52.200Z,0.58
2023-03-08T19:03:56.376Z,0.59
2023-03-08T19:09:00.545Z,0.58
2023-03-08T19:14:04.706Z,0.59
2023-03-08T19:19:08.926Z,0.61
2023-03-08T19:24:13.030Z,0.63
2023-03-08T19:29:17.208Z,0.63
2023-03-08T19:34:19.452Z,0.63
2023-03-08T19:39:23.634Z,0.64
2023-03-08T19:44:25.912Z,0.64
2023-03-08T19:49:30.088Z,0.66
2023-03-08T19:54:34.245Z,0.68
2023-03-08T19:59:38.394Z,0.66
2023-03-08T20:04:42.576Z,0.65
2023-03-08T20:09:46.711Z,0.66
2023-03-08T20:14:50.881Z,0.67
2023-03-08T20:19:55.105Z,0.69
2023-03-08T20:24:59.218Z,0.69
2023-03-08T20:30:03.410Z,0.68
2023-03-08T20:35:07.521Z,0.67
2023-03-08T20:40:11.782Z,0.68
2023-03-08T20:45:15.913Z,0.65
2023-03-08T20:50:20.262Z,0.64
2023-03-08T20:55:24.253Z,0.64
2023-03-08T21:00:28.407Z,0.64
2023-03-08T21:05:32.539Z,0.65
2023-03-08T21:10:36.703Z,0.67
2023-03-08T21:15:40.887Z,0.67
2023-03-08T21:20:44.893Z,0.68
2023-03-08T21:25:47.327Z,0.67
2023-03-08T21:30:49.650Z,0.69
2023-03-08T21:35:53.765Z,0.69
2023-03-08T21:40:56.030Z,0.69
2023-03-08T21:46:00.208Z,0.69
2023-03-08T21:51:04.365Z,0.65
2023-03-08T21:56:08.512Z,0.65
2023-03-08T22:01:12.710Z,0.66
2023-03-08T22:06:16.890Z,0.64
2023-03-08T22:11:21.013Z,0.64
2023-03-08T22:16:25.364Z,0.65
2023-03-08T22:21:29.356Z,0.63
2023-03-08T22:26:33.535Z,0.64
2023-03-08T22:31:37.700Z,0.64
2023-03-08T22:36:41.854Z,0.63
2023-03-08T22:41:46.003Z,0.63
2023-03-08T22:46:50.196Z,0.64
2023-03-08T22:51:54.375Z,0.64
2023-03-08T22:56:58.537Z,0.63
2023-03-08T23:02:02.686Z,0.63
2023-03-08T23:07:06.851Z,0.63
2023-03-08T23:12:11.020Z,0.62
2023-03-08T23:17:15.192Z,0.63
2023-03-08T23:22:19.328Z,0.64
2023-03-08T23:27:21.636Z,0.65
2023-03-08T23:32:26.106Z,0.65
2023-03-08T23:37:28.171Z,0.63
2023-03-08T23:42:32.206Z,0.61
2023-03-08T23:47:36.388Z,0.61
2023-03-08T23:52:40.562Z,0.59
2023-03-08T23:57:44.731Z,0.58
